Rechercher aéroport 
image banner adimage banner adimage banner ad
image banner ad

9PS8 - Manor Landing

Situé à Gettysburg, United States

ICAO - 9PS8, IATA -

Données fournies par Airmate  

Information générale

Coordonnées: N39°48'47" W77°17'42"
Élévation : 560 feet MSL.
Variation magnétique : -10° East
Voir autres Aéroports à Pennsylvania

Données opérationnelles

Special qualification required
Heure actuelle UTC:
Heure actuelle locale:
METAR: KDMW 150615Z AUTO 00000KT 10SM SCT065 20/16 A2981 RMK AO2 LTG DSNT E AND SE
Voir NOTAMs / SUP AIP / TFR affectant cet aéroport [VIEW]
Fréquences de communication: [VIEW]

Pistes:

Identifiant RWYQFULongueur (ft)Largeur (ft)SurfaceLDA (ft)
062000100GRASS
242000100GRASS

Coordonnées de l'aéroport

Adresse: Gettysburg United States

Vue satellite de 9PS8